Time;durP1;ratioP1;P1;durP2;ratioP2;P2;SDS_P1;SDS_P2;PMS_P1;PMS_P2;Temp;Humidity;BMP_temperature;BMP_pressure;BME280_temperature;BME280_humidity;BME280_pressure;Samples;Min_cycle;Max_cycle;Signal;HPM_P1;HPM_P2
2024/01/05 00:01:08;;;;;;;5.43;3.67;;;21.20;56.30;;;;;;5138652;27;20180;-69
2024/01/05 00:03:34;;;;;;;7.37;4.50;;;21.20;56.40;;;;;;5157347;27;20183;-69
2024/01/05 00:06:00;;;;;;;8.27;5.30;;;21.20;56.40;;;;;;5157430;27;20176;-69
2024/01/05 00:08:25;;;;;;;8.23;4.77;;;21.20;56.40;;;;;;5157575;27;20294;-69
2024/01/05 00:10:51;;;;;;;8.43;5.70;;;21.20;56.40;;;;;;5157438;27;20180;-69
2024/01/05 00:13:17;;;;;;;6.97;4.20;;;21.20;56.40;;;;;;5157182;27;20539;-69
2024/01/05 00:15:42;;;;;;;7.83;5.03;;;21.20;56.40;;;;;;5157274;27;20214;-68
2024/01/05 00:18:08;;;;;;;9.63;5.03;;;21.20;56.40;;;;;;5157643;27;20230;-69
2024/01/05 00:20:34;;;;;;;8.07;4.90;;;21.20;56.50;;;;;;5157632;27;20198;-69
2024/01/05 00:22:59;;;;;;;7.17;5.00;;;21.20;57.00;;;;;;5157463;27;20492;-69
2024/01/05 00:25:25;;;;;;;6.87;4.60;;;21.20;56.50;;;;;;5157618;27;20172;-69
2024/01/05 00:27:52;;;;;;;9.87;5.00;;;21.20;56.50;;;;;;5157074;27;20259;-69
2024/01/05 00:30:18;;;;;;;5.87;4.40;;;21.20;56.50;;;;;;5156753;27;20175;-69
2024/01/05 00:32:44;;;;;;;7.13;4.33;;;21.20;56.50;;;;;;5156428;27;20427;-69
2024/01/05 00:35:10;;;;;;;7.23;4.57;;;21.20;56.50;;;;;;5157446;27;20519;-69
2024/01/05 00:37:35;;;;;;;6.27;4.27;;;21.20;56.60;;;;;;5157359;27;20507;-69
2024/01/05 00:40:02;;;;;;;11.27;4.47;;;21.20;56.60;;;;;;5157660;27;20276;-69
2024/01/05 00:42:28;;;;;;;5.37;3.60;;;21.20;56.60;;;;;;5157859;27;20642;-70
2024/01/05 00:44:54;;;;;;;7.00;4.80;;;21.20;56.60;;;;;;5138601;27;20413;-69
2024/01/05 00:47:19;;;;;;;6.20;4.43;;;21.20;56.60;;;;;;5139007;27;20179;-68
2024/01/05 00:49:45;;;;;;;8.10;4.50;;;21.20;56.60;;;;;;5156941;27;20907;-69
2024/01/05 00:52:12;;;;;;;6.60;3.90;;;21.20;56.60;;;;;;5156964;27;20182;-69
2024/01/05 00:54:39;;;;;;;6.83;4.20;;;21.20;56.60;;;;;;5157324;27;20415;-69
2024/01/05 00:57:04;;;;;;;5.10;4.20;;;21.20;56.60;;;;;;5156808;27;20480;-69
2024/01/05 00:59:30;;;;;;;8.23;4.87;;;21.20;56.70;;;;;;5156911;27;20492;-69
2024/01/05 01:01:57;;;;;;;5.60;3.97;;;21.20;56.70;;;;;;5157164;27;20255;-69
2024/01/05 01:04:23;;;;;;;6.03;3.97;;;21.20;56.70;;;;;;5157051;27;20919;-69
2024/01/05 01:06:49;;;;;;;7.80;4.20;;;21.20;56.70;;;;;;5156473;27;20403;-70
2024/01/05 01:09:14;;;;;;;9.23;4.27;;;21.10;56.60;;;;;;5156189;27;20421;-69
2024/01/05 01:11:40;;;;;;;6.10;3.90;;;21.20;56.70;;;;;;5156566;27;20434;-70
2024/01/05 01:14:05;;;;;;;7.00;3.90;;;21.20;56.60;;;;;;5156939;27;20248;-69
2024/01/05 01:16:32;;;;;;;5.77;4.23;;;21.20;56.70;;;;;;5156295;27;20199;-69
2024/01/05 01:18:57;;;;;;;4.70;3.70;;;21.20;56.60;;;;;;5156336;27;20192;-69
2024/01/05 01:21:23;;;;;;;7.70;4.43;;;21.20;56.60;;;;;;5156215;27;20444;-69
2024/01/05 01:23:49;;;;;;;7.67;4.00;;;21.20;56.70;;;;;;5156407;27;20176;-69
2024/01/05 01:26:16;;;;;;;6.63;4.17;;;21.20;56.70;;;;;;5155866;27;20175;-69
2024/01/05 01:28:41;;;;;;;6.37;3.60;;;21.10;56.60;;;;;;5137651;27;20816;-69
2024/01/05 01:31:07;;;;;;;6.57;3.70;;;21.20;56.70;;;;;;5155425;27;20600;-69
2024/01/05 01:33:32;;;;;;;5.70;3.70;;;21.20;56.70;;;;;;5156197;27;20184;-69
2024/01/05 01:35:58;;;;;;;9.40;3.93;;;21.20;56.70;;;;;;5156340;27;20175;-69
2024/01/05 01:38:23;;;;;;;6.77;4.00;;;21.20;56.70;;;;;;5155139;27;20194;-69
2024/01/05 01:40:49;;;;;;;4.73;3.30;;;21.20;56.70;;;;;;5155025;27;21010;-69
2024/01/05 01:43:24;;;;;;;4.03;3.30;;;21.20;56.70;;;;;;5155069;27;20167;-69
2024/01/05 01:45:50;;;;;;;4.97;4.00;;;21.20;56.70;;;;;;5155371;27;20166;-70
2024/01/05 01:48:18;;;;;;;8.47;4.10;;;21.10;56.70;;;;;;5154915;27;20428;-69
2024/01/05 01:50:44;;;;;;;4.70;3.40;;;21.10;56.70;;;;;;5136243;27;20855;-69
2024/01/05 01:53:13;;;;;;;7.23;3.80;;;21.20;56.80;;;;;;5133924;27;20506;-69
2024/01/05 01:55:40;;;;;;;6.60;3.57;;;21.10;56.70;;;;;;5133986;27;20406;-69
2024/01/05 01:58:06;;;;;;;6.43;3.67;;;21.10;56.70;;;;;;5133843;27;20441;-68
2024/01/05 02:00:33;;;;;;;5.93;4.30;;;21.10;56.70;;;;;;5134403;27;20522;-69
2024/01/05 02:03:00;;;;;;;4.93;3.50;;;21.10;56.70;;;;;;5133650;27;20209;-69
2024/01/05 02:05:26;;;;;;;5.83;4.67;;;21.10;56.80;;;;;;5115522;28;20500;-69
2024/01/05 02:07:52;;;;;;;8.53;3.90;;;21.10;56.80;;;;;;5133872;27;20453;-69
2024/01/05 02:10:18;;;;;;;5.67;3.80;;;21.10;56.80;;;;;;5134003;27;20480;-69
2024/01/05 02:12:43;;;;;;;7.10;4.00;;;21.10;56.80;;;;;;5134337;27;20406;-68
2024/01/05 02:15:09;;;;;;;6.97;3.67;;;21.20;56.90;;;;;;5133560;27;20621;-69
2024/01/05 02:17:34;;;;;;;6.40;4.20;;;21.10;56.80;;;;;;5133770;27;20232;-69
2024/01/05 02:20:02;;;;;;;6.47;4.40;;;21.20;56.90;;;;;;5133595;27;20251;-69
2024/01/05 02:22:29;;;;;;;7.73;4.10;;;21.10;56.80;;;;;;5133671;27;20417;-69
2024/01/05 02:24:57;;;;;;;8.90;3.80;;;21.10;56.80;;;;;;5140558;27;20516;-69
2024/01/05 02:27:23;;;;;;;8.90;4.53;;;21.10;56.80;;;;;;5154339;27;21212;-68
2024/01/05 02:29:48;;;;;;;5.13;3.80;;;21.10;56.80;;;;;;5149772;27;20501;-69
2024/01/05 02:32:15;;;;;;;6.00;3.20;;;21.10;56.80;;;;;;5133290;27;20505;-69
2024/01/05 02:34:40;;;;;;;6.50;3.60;;;21.10;56.90;;;;;;5133758;27;20187;-69
2024/01/05 02:37:06;;;;;;;5.50;3.37;;;21.10;56.80;;;;;;5133414;27;20488;-69
2024/01/05 02:39:31;;;;;;;5.00;3.70;;;21.10;56.90;;;;;;5133158;27;20743;-68
2024/01/05 02:41:57;;;;;;;5.27;3.30;;;21.10;56.90;;;;;;5133829;28;20214;-69
2024/01/05 02:44:23;;;;;;;7.50;4.00;;;21.10;56.90;;;;;;5133421;28;20198;-69
2024/01/05 02:46:48;;;;;;;6.57;3.40;;;21.10;56.90;;;;;;5133471;28;20753;-69
2024/01/05 02:49:14;;;;;;;5.17;3.53;;;21.10;56.90;;;;;;5132854;28;20282;-69
2024/01/05 02:51:39;;;;;;;7.27;3.73;;;21.10;56.90;;;;;;5133907;27;20176;-69
2024/01/05 02:54:05;;;;;;;5.03;3.03;;;21.10;56.90;;;;;;5137715;27;20228;-69
2024/01/05 02:56:33;;;;;;;4.43;2.97;;;21.10;56.90;;;;;;5137240;27;20252;-69
2024/01/05 02:58:59;;;;;;;5.30;3.03;;;21.10;56.90;;;;;;5118820;27;20210;-69
2024/01/05 03:01:25;;;;;;;6.10;3.60;;;21.10;56.90;;;;;;5137071;27;20402;-69
2024/01/05 03:03:50;;;;;;;5.43;3.33;;;21.10;56.90;;;;;;5137215;27;20638;-68
2024/01/05 03:06:17;;;;;;;6.30;3.70;;;21.10;56.90;;;;;;5137286;27;20176;-69
2024/01/05 03:08:43;;;;;;;4.20;3.80;;;21.10;56.90;;;;;;5137221;27;20184;-68
2024/01/05 03:11:10;;;;;;;4.93;3.27;;;21.10;57.00;;;;;;5137356;27;20410;-69
2024/01/05 03:13:35;;;;;;;6.37;3.83;;;21.10;56.90;;;;;;5137228;27;20410;-69
2024/01/05 03:16:01;;;;;;;6.10;3.73;;;21.10;57.00;;;;;;5136912;27;20421;-69
2024/01/05 03:18:27;;;;;;;4.57;2.93;;;21.10;56.90;;;;;;5136731;27;20936;-69
2024/01/05 03:20:52;;;;;;;6.03;3.53;;;21.10;57.00;;;;;;5137062;27;20207;-69
2024/01/05 03:23:18;;;;;;;5.73;3.27;;;21.10;57.00;;;;;;5136969;27;20663;-69
2024/01/05 03:25:45;;;;;;;4.33;2.90;;;21.10;57.00;;;;;;5137015;27;20168;-69
2024/01/05 03:28:11;;;;;;;4.73;3.27;;;21.10;57.00;;;;;;5136716;27;20869;-69
2024/01/05 03:30:41;;;;;;;5.23;3.70;;;21.10;57.00;;;;;;5136803;27;20426;-69
2024/01/05 03:33:06;;;;;;;4.23;3.17;;;21.10;57.00;;;;;;5136716;27;20505;-69
2024/01/05 03:35:32;;;;;;;6.60;3.20;;;21.10;57.00;;;;;;5136592;27;20437;-69
2024/01/05 03:37:57;;;;;;;6.10;4.33;;;21.10;57.00;;;;;;5136335;27;20203;-68
2024/01/05 03:40:23;;;;;;;4.40;3.20;;;21.10;57.00;;;;;;5136560;27;20204;-68
2024/01/05 03:42:49;;;;;;;4.53;3.30;;;21.10;57.00;;;;;;5136694;27;20165;-69
2024/01/05 03:45:14;;;;;;;4.87;2.97;;;21.10;57.00;;;;;;5136795;27;20522;-68
2024/01/05 03:47:40;;;;;;;4.10;2.60;;;21.10;57.00;;;;;;5136171;27;20195;-69
2024/01/05 03:50:06;;;;;;;4.33;3.10;;;21.10;57.00;;;;;;5136211;27;20164;-68
2024/01/05 03:52:32;;;;;;;5.43;3.37;;;21.10;57.00;;;;;;5135957;27;20222;-69
2024/01/05 03:54:57;;;;;;;3.73;3.20;;;21.10;57.00;;;;;;5117862;27;20413;-69
2024/01/05 03:57:23;;;;;;;5.50;3.60;;;21.10;57.00;;;;;;5137361;27;20165;-69
2024/01/05 03:59:52;;;;;;;6.30;3.13;;;21.10;57.00;;;;;;5137645;27;20228;-69
2024/01/05 04:02:18;;;;;;;6.50;3.37;;;21.10;57.00;;;;;;5135843;27;20169;-69
2024/01/05 04:04:43;;;;;;;3.40;2.90;;;21.10;57.00;;;;;;5134791;27;20403;-69
2024/01/05 04:07:09;;;;;;;3.90;2.73;;;21.10;57.00;;;;;;5135968;27;20194;-69
2024/01/05 04:09:34;;;;;;;4.27;3.33;;;21.10;57.00;;;;;;5117151;27;20192;-69
2024/01/05 04:12:00;;;;;;;3.97;2.80;;;21.10;57.00;;;;;;5135634;27;20168;-69
2024/01/05 04:14:26;;;;;;;5.37;3.40;;;21.10;57.00;;;;;;5135874;27;20208;-67
2024/01/05 04:16:51;;;;;;;4.87;3.17;;;21.10;57.00;;;;;;5135702;27;20188;-69
2024/01/05 04:19:17;;;;;;;4.93;3.50;;;21.10;57.00;;;;;;5135751;27;20663;-69
2024/01/05 04:21:43;;;;;;;3.87;3.13;;;21.10;57.00;;;;;;5140498;27;20654;-69
2024/01/05 04:24:09;;;;;;;4.20;2.70;;;21.10;57.00;;;;;;5156048;27;20172;-69
2024/01/05 04:26:35;;;;;;;5.23;3.30;;;21.10;57.60;;;;;;5152253;27;20169;-69
2024/01/05 04:29:01;;;;;;;4.30;2.83;;;21.10;57.00;;;;;;5145369;27;20436;-69
2024/01/05 04:31:27;;;;;;;2.97;2.53;;;21.10;57.00;;;;;;5137285;27;20927;-69
2024/01/05 04:33:54;;;;;;;4.13;2.80;;;21.10;57.00;;;;;;5156316;27;20224;-69
2024/01/05 04:36:19;;;;;;;5.33;3.00;;;21.10;57.00;;;;;;5156384;27;20168;-69
2024/01/05 04:38:45;;;;;;;4.80;3.20;;;21.10;57.00;;;;;;5155868;27;20421;-69
2024/01/05 04:41:13;;;;;;;4.60;2.63;;;21.10;57.00;;;;;;5155650;27;20253;-69
2024/01/05 04:43:39;;;;;;;5.67;3.07;;;21.10;57.00;;;;;;5155964;27;20751;-69
2024/01/05 04:46:05;;;;;;;7.27;3.60;;;21.10;57.00;;;;;;5155619;27;20397;-68
2024/01/05 04:48:31;;;;;;;7.33;3.50;;;21.10;57.00;;;;;;5155898;27;20187;-69
2024/01/05 04:50:56;;;;;;;3.53;2.60;;;21.10;57.00;;;;;;5156390;27;20781;-68
2024/01/05 04:53:22;;;;;;;3.93;3.03;;;21.10;57.00;;;;;;5155680;27;20718;-69
2024/01/05 04:55:48;;;;;;;5.73;3.50;;;21.10;57.00;;;;;;5155303;27;20176;-68
2024/01/05 04:58:13;;;;;;;5.07;2.80;;;21.10;57.00;;;;;;5155577;27;20199;-69
2024/01/05 05:00:39;;;;;;;4.10;2.67;;;21.10;57.00;;;;;;5155314;27;20218;-69
2024/01/05 05:03:05;;;;;;;3.60;3.13;;;21.10;57.00;;;;;;5155272;27;20167;-69
2024/01/05 05:05:30;;;;;;;4.30;2.80;;;21.10;57.00;;;;;;5136724;27;20654;-69
2024/01/05 05:07:56;;;;;;;3.87;2.70;;;21.10;57.50;;;;;;5155164;27;20455;-68
2024/01/05 05:10:22;;;;;;;4.50;3.33;;;21.10;57.00;;;;;;5155135;27;20590;-69
2024/01/05 05:12:48;;;;;;;4.23;2.77;;;21.10;57.00;;;;;;5154678;27;20413;-69
2024/01/05 05:15:14;;;;;;;3.93;2.60;;;21.10;57.00;;;;;;5154733;27;20179;-69
2024/01/05 05:17:39;;;;;;;4.23;2.70;;;21.10;57.00;;;;;;5154738;27;20491;-69
2024/01/05 05:20:05;;;;;;;4.50;2.90;;;21.10;57.00;;;;;;5150362;27;20291;-69
2024/01/05 05:22:31;;;;;;;3.67;2.60;;;21.10;57.00;;;;;;5134421;27;20171;-69
2024/01/05 05:24:57;;;;;;;3.33;2.80;;;21.10;57.00;;;;;;5134259;27;20414;-69
2024/01/05 05:27:23;;;;;;;3.93;2.70;;;21.10;57.00;;;;;;5134218;27;20161;-69
2024/01/05 05:29:48;;;;;;;3.83;2.80;;;21.10;57.00;;;;;;5134298;27;20428;-67
2024/01/05 05:32:14;;;;;;;5.10;2.90;;;21.10;56.90;;;;;;5134061;27;20172;-70
2024/01/05 05:34:41;;;;;;;4.10;2.80;;;21.10;56.90;;;;;;5133773;27;20669;-69
2024/01/05 05:37:07;;;;;;;3.87;2.90;;;21.10;56.90;;;;;;5120786;27;20417;-68
2024/01/05 05:39:33;;;;;;;5.10;2.90;;;21.10;56.90;;;;;;5154633;27;20493;-69
2024/01/05 05:41:58;;;;;;;4.10;2.80;;;21.10;56.90;;;;;;5154409;27;20175;-69
2024/01/05 05:44:24;;;;;;;3.77;2.80;;;21.10;56.90;;;;;;5154893;27;20170;-68
2024/01/05 05:46:49;;;;;;;2.23;1.83;;;21.10;56.90;;;;;;5142075;27;20172;-69
2024/01/05 05:49:15;;;;;;;2.70;2.00;;;21.10;56.90;;;;;;5133912;27;20197;-69
2024/01/05 05:51:40;;;;;;;4.13;2.33;;;21.10;56.90;;;;;;5133744;27;20195;-69
2024/01/05 05:54:06;;;;;;;3.43;2.40;;;21.10;56.90;;;;;;5133906;27;20201;-69
2024/01/05 05:56:32;;;;;;;3.30;2.60;;;21.10;56.90;;;;;;5133923;27;20178;-69
2024/01/05 05:58:57;;;;;;;4.63;2.73;;;21.10;56.90;;;;;;5114516;27;20563;-68
2024/01/05 06:01:24;;;;;;;5.03;2.70;;;21.10;56.90;;;;;;5133488;27;20176;-68
2024/01/05 06:03:50;;;;;;;2.73;2.07;;;21.10;56.90;;;;;;5133485;27;20160;-69
2024/01/05 06:06:21;;;;;;;6.40;2.53;;;21.10;56.90;;;;;;5135653;27;20828;-69
2024/01/05 06:08:47;;;;;;;3.30;2.30;;;21.10;56.90;;;;;;5154164;27;20184;-69
2024/01/05 06:11:18;;;;;;;3.70;2.30;;;21.20;57.00;;;;;;5153640;27;20509;-68
2024/01/05 06:13:45;;;;;;;6.80;3.67;;;21.10;56.90;;;;;;5094192;28;20399;-69
2024/01/05 06:16:11;;;;;;;4.50;3.10;;;21.10;56.80;;;;;;5112741;28;20438;-69
2024/01/05 06:18:37;;;;;;;2.70;2.40;;;21.10;56.90;;;;;;5112738;28;20996;-69
2024/01/05 06:21:03;;;;;;;2.90;2.60;;;21.20;56.90;;;;;;5112476;28;20548;-69
2024/01/05 06:23:30;;;;;;;3.70;2.33;;;21.20;56.90;;;;;;5113085;28;21077;-69
2024/01/05 06:25:56;;;;;;;5.10;2.57;;;21.20;57.00;;;;;;5112602;28;21219;-70
2024/01/05 06:28:22;;;;;;;2.50;1.67;;;21.20;57.10;;;;;;5112598;28;20427;-68
2024/01/05 06:30:47;;;;;;;3.57;2.00;;;21.20;57.10;;;;;;5112963;28;20202;-69
2024/01/05 06:33:13;;;;;;;2.47;1.87;;;21.20;57.70;;;;;;5112727;28;20653;-69
2024/01/05 06:35:38;;;;;;;4.00;2.13;;;21.20;57.20;;;;;;5112211;28;20218;-69
2024/01/05 06:38:04;;;;;;;4.17;2.27;;;21.20;57.20;;;;;;5127932;27;20199;-69
2024/01/05 06:40:30;;;;;;;4.53;2.53;;;21.30;57.20;;;;;;5153558;27;20188;-68
2024/01/05 06:42:57;;;;;;;2.47;2.20;;;21.30;57.20;;;;;;5154203;27;20186;-69
2024/01/05 06:45:25;;;;;;;3.17;2.57;;;21.30;57.20;;;;;;5152117;27;20164;-69
2024/01/05 06:47:51;;;;;;;3.47;1.83;;;21.30;57.20;;;;;;5133332;28;20879;-69
2024/01/05 06:50:17;;;;;;;2.80;2.00;;;21.30;57.10;;;;;;5132966;28;20509;-69
2024/01/05 06:52:43;;;;;;;2.47;1.93;;;21.30;57.10;;;;;;5133197;28;20577;-69
2024/01/05 06:55:09;;;;;;;2.77;2.20;;;21.30;57.00;;;;;;5114404;28;20215;-69
2024/01/05 06:57:35;;;;;;;2.30;2.00;;;21.40;57.10;;;;;;5114347;28;20854;-69
2024/01/05 07:00:05;;;;;;;3.27;2.33;;;21.40;57.10;;;;;;5133339;28;20878;-69
2024/01/05 07:02:31;;;;;;;3.10;1.93;;;21.40;57.00;;;;;;5132791;28;20888;-69
2024/01/05 07:04:57;;;;;;;2.13;1.77;;;21.40;57.60;;;;;;5132544;28;20410;-68
2024/01/05 07:07:23;;;;;;;2.43;1.83;;;21.40;57.00;;;;;;5132530;28;20410;-66
2024/01/05 07:09:48;;;;;;;2.97;1.80;;;21.40;57.00;;;;;;5132837;28;20542;-68
2024/01/05 07:12:14;;;;;;;2.90;2.00;;;21.40;57.00;;;;;;5132727;28;20195;-68
2024/01/05 07:14:40;;;;;;;2.80;1.83;;;21.40;57.00;;;;;;5132847;28;20182;-68
2024/01/05 07:17:06;;;;;;;2.43;1.63;;;21.50;57.10;;;;;;5132435;28;20430;-68
2024/01/05 07:19:31;;;;;;;3.03;2.17;;;21.40;57.00;;;;;;5114205;28;20597;-68
2024/01/05 07:21:57;;;;;;;2.10;1.90;;;21.40;57.00;;;;;;5113688;28;20164;-67
2024/01/05 07:24:22;;;;;;;2.40;1.60;;;21.50;57.00;;;;;;5132552;28;20179;-68
2024/01/05 07:26:48;;;;;;;2.40;1.60;;;21.50;57.10;;;;;;5132812;28;20161;-68
2024/01/05 07:29:14;;;;;;;2.33;1.50;;;21.40;57.00;;;;;;5114526;28;21008;-68
2024/01/05 07:31:40;;;;;;;3.00;2.30;;;21.50;57.00;;;;;;5132686;28;20544;-68
2024/01/05 07:34:06;;;;;;;3.03;2.17;;;21.50;57.00;;;;;;5133436;27;20179;-68
2024/01/05 07:36:31;;;;;;;5.97;1.93;;;21.50;57.00;;;;;;5143834;27;20165;-68
2024/01/05 07:38:59;;;;;;;4.00;2.10;;;21.50;57.00;;;;;;5133773;27;21332;-67
2024/01/05 07:41:26;;;;;;;2.93;2.60;;;21.50;57.00;;;;;;5154198;27;20199;-67
2024/01/05 07:43:52;;;;;;;2.30;1.70;;;21.40;56.90;;;;;;5152289;27;20459;-69
2024/01/05 07:46:19;;;;;;;4.20;2.07;;;21.40;56.80;;;;;;5136206;27;20414;-68
2024/01/05 07:48:46;;;;;;;5.90;2.10;;;21.50;57.40;;;;;;5136838;27;20196;-68
2024/01/05 07:51:12;;;;;;;3.30;1.90;;;21.50;56.90;;;;;;5150695;27;20416;-68
2024/01/05 07:53:38;;;;;;;3.70;2.10;;;21.50;56.90;;;;;;5154012;27;20452;-67
2024/01/05 07:56:05;;;;;;;2.40;1.70;;;21.50;57.00;;;;;;5137513;27;20424;-68
2024/01/05 07:58:31;;;;;;;3.17;1.90;;;21.50;57.00;;;;;;5146515;27;20958;-68
2024/01/05 08:00:57;;;;;;;3.07;1.87;;;21.50;57.00;;;;;;5139778;27;20457;-69
2024/01/05 08:03:23;;;;;;;3.97;1.83;;;21.50;57.00;;;;;;5135705;27;20174;-68
2024/01/05 08:05:48;;;;;;;4.13;2.50;;;21.50;57.00;;;;;;5152729;27;20492;-69
2024/01/05 08:08:14;;;;;;;3.80;2.00;;;21.50;57.00;;;;;;5132256;27;20192;-67
2024/01/05 08:10:40;;;;;;;2.83;1.93;;;21.50;57.00;;;;;;5152860;27;20183;-68
2024/01/05 08:13:05;;;;;;;3.77;2.03;;;21.50;57.00;;;;;;5153089;27;20383;-68
2024/01/05 08:15:31;;;;;;;3.60;1.80;;;21.50;57.00;;;;;;5152973;27;20172;-68
2024/01/05 08:17:57;;;;;;;3.10;1.90;;;21.50;57.00;;;;;;5139214;27;20216;-68
2024/01/05 08:20:23;;;;;;;3.10;1.80;;;21.50;57.00;;;;;;5145887;27;20652;-68
2024/01/05 08:22:49;;;;;;;3.10;1.90;;;21.50;57.00;;;;;;5136779;27;20428;-69
2024/01/05 08:25:14;;;;;;;3.60;1.77;;;21.50;57.00;;;;;;5135493;27;20179;-68
2024/01/05 08:27:40;;;;;;;3.43;1.60;;;21.50;57.50;;;;;;5124315;27;20207;-69
2024/01/05 08:30:11;;;;;;;2.20;1.70;;;21.50;57.00;;;;;;5149013;27;20176;-68
2024/01/05 08:32:38;;;;;;;2.83;2.10;;;21.50;57.00;;;;;;5135777;27;20421;-68
2024/01/05 08:35:04;;;;;;;3.83;2.00;;;21.50;57.00;;;;;;5145690;27;20923;-67
2024/01/05 08:37:30;;;;;;;2.40;1.40;;;21.50;57.00;;;;;;5155651;27;20417;-68
2024/01/05 08:39:56;;;;;;;3.60;1.77;;;21.50;57.00;;;;;;5150488;27;21045;-68
2024/01/05 08:42:21;;;;;;;3.20;2.30;;;21.50;57.00;;;;;;5134686;27;20203;-68
2024/01/05 08:44:47;;;;;;;4.40;2.00;;;21.50;57.00;;;;;;5145746;27;20934;-68
2024/01/05 08:47:13;;;;;;;2.87;1.50;;;21.50;57.00;;;;;;5134939;27;20654;-69
2024/01/05 08:49:38;;;;;;;4.60;1.60;;;21.50;57.00;;;;;;5139236;27;20173;-69
2024/01/05 08:52:04;;;;;;;2.53;1.80;;;21.50;56.90;;;;;;5134709;27;20194;-68
2024/01/05 08:54:30;;;;;;;3.83;2.10;;;21.50;57.00;;;;;;5131929;27;20210;-68
2024/01/05 08:56:56;;;;;;;3.73;1.90;;;21.50;57.00;;;;;;5134689;27;20177;-67
2024/01/05 08:59:22;;;;;;;3.50;2.00;;;21.50;57.00;;;;;;5134301;27;20203;-68
2024/01/05 09:01:47;;;;;;;2.53;1.87;;;21.50;57.00;;;;;;5131473;27;20410;-67
2024/01/05 09:04:14;;;;;;;3.60;1.77;;;21.50;56.90;;;;;;5133898;27;20299;-68
2024/01/05 09:06:40;;;;;;;2.80;2.10;;;21.50;57.50;;;;;;5134351;27;20173;-67
2024/01/05 09:09:06;;;;;;;2.43;2.03;;;21.50;56.90;;;;;;5133873;27;20445;-68
2024/01/05 09:11:31;;;;;;;3.50;2.03;;;21.50;57.00;;;;;;5134380;27;20168;-67
2024/01/05 09:13:57;;;;;;;5.57;1.83;;;21.50;56.90;;;;;;5134399;27;20172;-68
2024/01/05 09:16:22;;;;;;;2.90;1.67;;;21.50;56.90;;;;;;5134138;27;20788;-69
2024/01/05 09:18:49;;;;;;;3.10;1.83;;;21.50;56.90;;;;;;5134167;27;20196;-68
2024/01/05 09:21:15;;;;;;;4.03;2.03;;;21.50;56.90;;;;;;5133439;27;20199;-68
2024/01/05 09:23:41;;;;;;;4.60;1.77;;;21.50;57.00;;;;;;5132978;27;20987;-69
2024/01/05 09:26:14;;;;;;;3.53;2.00;;;21.50;57.00;;;;;;5134058;27;20505;-67
2024/01/05 09:28:40;;;;;;;3.93;1.67;;;21.50;57.00;;;;;;5133997;27;20468;-68
2024/01/05 09:31:06;;;;;;;8.03;2.43;;;21.50;57.00;;;;;;5134214;27;20410;-69
2024/01/05 09:33:32;;;;;;;3.20;1.63;;;21.60;57.10;;;;;;5134843;27;20417;-69
2024/01/05 09:35:57;;;;;;;3.50;1.70;;;21.50;57.00;;;;;;5134699;27;20176;-68
2024/01/05 09:38:23;;;;;;;3.53;2.03;;;21.50;57.00;;;;;;5116192;27;20559;-67
2024/01/05 09:40:52;;;;;;;3.63;2.10;;;21.50;57.00;;;;;;5147874;27;20204;-68
2024/01/05 09:43:23;;;;;;;3.10;1.50;;;21.60;57.10;;;;;;5150354;27;20183;-69
2024/01/05 09:45:50;;;;;;;6.43;1.70;;;21.50;57.60;;;;;;5137293;27;20796;-68
2024/01/05 09:48:21;;;;;;;2.70;1.83;;;21.50;57.10;;;;;;5151125;27;20521;-69
2024/01/05 09:50:51;;;;;;;4.33;2.40;;;21.60;57.10;;;;;;5134276;27;20418;-69
2024/01/05 09:53:18;;;;;;;2.30;1.70;;;21.50;57.00;;;;;;5146056;27;21096;-68
2024/01/05 09:55:47;;;;;;;2.50;2.00;;;21.60;57.10;;;;;;5134055;27;20449;-68
2024/01/05 09:58:14;;;;;;;3.73;1.80;;;21.60;57.10;;;;;;5151602;27;20432;-68
2024/01/05 10:00:47;;;;;;;2.57;1.90;;;21.60;57.70;;;;;;5136588;27;20464;-69
2024/01/05 10:03:23;;;;;;;3.73;1.53;;;21.60;57.10;;;;;;5133889;27;20451;-69
2024/01/05 10:05:56;;;;;;;2.20;1.93;;;21.60;57.10;;;;;;5134749;27;20802;-69
2024/01/05 10:08:22;;;;;;;1.60;1.47;;;21.60;57.10;;;;;;5134065;27;20471;-68
2024/01/05 10:10:52;;;;;;;2.87;1.60;;;21.60;57.10;;;;;;5137679;27;20937;-69
2024/01/05 10:13:18;;;;;;;4.10;2.00;;;21.60;57.10;;;;;;5148099;27;20406;-69
2024/01/05 10:15:55;;;;;;;4.80;2.00;;;21.60;57.10;;;;;;5134115;27;20418;-67
2024/01/05 10:18:21;;;;;;;3.20;1.77;;;21.60;57.10;;;;;;5143690;27;20803;-68
2024/01/05 10:20:47;;;;;;;3.60;2.00;;;21.60;57.10;;;;;;5141375;27;21275;-68
2024/01/05 10:23:13;;;;;;;5.57;2.13;;;21.60;57.20;;;;;;5134090;27;20471;-68
2024/01/05 10:25:39;;;;;;;2.33;1.77;;;21.60;57.20;;;;;;5133610;27;20417;-68
2024/01/05 10:28:32;;;;;;;3.60;1.90;;;21.60;57.10;;;;;;5134152;27;20945;-68
2024/01/05 10:31:12;;;;;;;3.13;2.10;;;21.60;57.10;;;;;;5133903;27;20195;-68
2024/01/05 10:33:52;;;;;;;2.97;1.93;;;21.60;57.10;;;;;;5133801;27;20401;-69
2024/01/05 10:36:21;;;;;;;5.60;2.30;;;21.60;57.10;;;;;;5142561;27;20448;-69
2024/01/05 10:38:48;;;;;;;3.60;2.17;;;21.60;57.10;;;;;;5113095;28;20422;-68
2024/01/05 10:41:16;;;;;;;2.43;1.80;;;21.60;57.10;;;;;;5141693;27;21018;-68
2024/01/05 10:43:42;;;;;;;3.07;2.00;;;21.60;57.10;;;;;;5140348;27;21214;-67
2024/01/05 10:46:12;;;;;;;3.33;2.10;;;21.60;57.10;;;;;;5152429;27;20409;-71
2024/01/05 10:48:40;;;;;;;3.67;2.23;;;21.60;57.10;;;;;;5139524;27;20192;-74
2024/01/05 10:51:06;;;;;;;3.90;2.83;;;21.60;57.10;;;;;;5140468;27;20418;-74
2024/01/05 10:53:33;;;;;;;4.60;3.27;;;21.60;57.20;;;;;;5138211;27;20428;-71
2024/01/05 10:56:06;;;;;;;4.80;3.60;;;21.60;57.20;;;;;;5149737;27;20260;-73
2024/01/05 10:58:31;;;;;;;6.60;3.63;;;21.60;57.20;;;;;;5139534;27;20436;-70
2024/01/05 11:01:00;;;;;;;7.07;3.83;;;21.60;57.20;;;;;;5136262;28;20991;-70
2024/01/05 11:03:34;;;;;;;7.90;3.30;;;21.60;57.20;;;;;;5151903;27;20175;-72
2024/01/05 11:06:02;;;;;;;6.50;3.90;;;21.60;57.20;;;;;;5137932;27;20481;-71
2024/01/05 11:08:57;;;;;;;10.40;5.10;;;21.60;57.20;;;;;;5155626;27;20420;-73
2024/01/05 11:11:36;;;;;;;9.10;5.50;;;21.60;57.20;;;;;;5161884;27;20397;-75
2024/01/05 11:14:11;;;;;;;8.60;5.63;;;21.60;57.20;;;;;;5159102;27;20755;-74
2024/01/05 11:17:14;;;;;;;8.90;4.80;;;21.60;57.20;;;;;;5141121;27;20428;-71
2024/01/05 11:19:58;;;;;;;6.63;5.13;;;21.60;57.20;;;;;;5150187;27;20492;-70
2024/01/05 11:22:35;;;;;;;9.63;5.17;;;21.60;57.20;;;;;;5144073;27;21065;-74
2024/01/05 11:25:02;;;;;;;8.50;4.40;;;21.60;57.30;;;;;;5143840;27;20401;-74
2024/01/05 11:27:48;;;;;;;8.13;5.07;;;21.60;57.30;;;;;;5142601;27;20480;-75
2024/01/05 11:30:14;;;;;;;9.80;5.97;;;21.60;57.30;;;;;;5038485;28;20454;-74
2024/01/05 11:32:45;;;;;;;9.73;6.20;;;21.60;57.30;;;;;;5038552;28;20418;-73
2024/01/05 11:35:41;;;;;;;12.53;6.27;;;21.60;57.30;;;;;;5038265;28;20266;-74
2024/01/05 11:38:25;;;;;;;8.67;5.67;;;21.60;57.50;;;;;;5029283;28;20442;-75
2024/01/05 11:40:50;;;;;;;9.30;5.40;;;21.60;57.20;;;;;;5020829;28;20470;-73
2024/01/05 11:43:33;;;;;;;10.50;6.27;;;21.60;57.30;;;;;;5036299;28;20963;-73
2024/01/05 11:45:58;;;;;;;11.57;5.83;;;21.60;57.20;;;;;;5036070;28;20172;-74
2024/01/05 11:48:36;;;;;;;7.80;5.47;;;21.60;57.20;;;;;;5036056;28;20434;-74
2024/01/05 11:51:12;;;;;;;13.70;6.93;;;21.60;57.30;;;;;;5035496;28;20183;-73
2024/01/05 11:53:38;;;;;;;10.30;5.50;;;21.60;57.30;;;;;;5037263;28;20433;-74
2024/01/05 11:56:14;;;;;;;10.50;6.30;;;21.60;57.30;;;;;;5036661;28;20428;-75
2024/01/05 11:58:43;;;;;;;9.23;5.47;;;21.60;57.30;;;;;;5031826;28;20433;-72
2024/01/05 12:01:10;;;;;;;10.70;6.57;;;21.60;57.30;;;;;;5031115;28;21094;-75
2024/01/05 12:03:38;;;;;;;11.80;5.70;;;21.60;57.30;;;;;;5015948;28;20907;-72
2024/01/05 12:06:11;;;;;;;12.83;6.53;;;21.60;57.30;;;;;;5033022;28;20410;-73
2024/01/05 12:08:38;;;;;;;12.00;6.10;;;21.60;57.20;;;;;;5135141;27;20430;-72
2024/01/05 12:11:05;;;;;;;11.80;7.40;;;21.60;57.30;;;;;;5134929;27;20513;-73
2024/01/05 12:13:33;;;;;;;10.17;6.57;;;21.60;57.30;;;;;;5136753;27;20409;-76
2024/01/05 12:16:00;;;;;;;12.53;6.53;;;21.60;57.30;;;;;;5154460;27;20425;-76
2024/01/05 12:18:26;;;;;;;9.60;6.00;;;21.60;57.30;;;;;;5154352;27;20420;-75
2024/01/05 12:20:55;;;;;;;9.93;6.77;;;21.60;57.30;;;;;;5155022;27;20496;-72
2024/01/05 12:23:21;;;;;;;7.97;5.80;;;21.60;57.30;;;;;;5155396;27;20408;-70
2024/01/05 12:26:00;;;;;;;8.20;5.53;;;21.60;57.30;;;;;;5134735;27;20945;-72
2024/01/05 12:28:28;;;;;;;11.57;6.63;;;21.60;57.30;;;;;;5154365;27;20693;-71
2024/01/05 12:30:55;;;;;;;11.90;6.20;;;21.60;57.30;;;;;;5155949;27;20416;-70
2024/01/05 12:33:21;;;;;;;10.80;6.73;;;21.60;57.30;;;;;;5156254;27;20409;-69
2024/01/05 12:35:52;;;;;;;8.23;5.37;;;21.60;57.30;;;;;;5136161;27;20416;-70
2024/01/05 12:38:28;;;;;;;10.63;5.77;;;21.60;57.30;;;;;;5155299;27;20469;-69
2024/01/05 12:41:08;;;;;;;10.90;6.10;;;21.60;57.30;;;;;;5154530;27;20483;-70
2024/01/05 12:43:35;;;;;;;9.40;6.70;;;21.60;57.30;;;;;;5154089;27;20883;-69
2024/01/05 12:46:00;;;;;;;9.73;6.30;;;21.60;57.30;;;;;;5154222;27;20511;-69